createdAt,value
2019-01-20T00:02:21.304Z,6.50
2019-01-20T00:04:54.079Z,3.53
2019-01-20T00:07:28.809Z,6.43
2019-01-20T00:10:01.720Z,6.30
2019-01-20T00:12:34.459Z,4.77
2019-01-20T00:15:08.484Z,13.77
2019-01-20T00:17:41.139Z,7.83
2019-01-20T00:20:13.718Z,5.30
2019-01-20T00:22:47.039Z,9.57
2019-01-20T00:25:19.422Z,2.97
2019-01-20T00:27:52.329Z,7.87
2019-01-20T00:30:25.963Z,2.63
2019-01-20T00:32:59.398Z,7.70
2019-01-20T00:35:33.843Z,7.50
2019-01-20T00:38:06.774Z,5.70
2019-01-20T00:40:39.804Z,6.27
2019-01-20T00:43:12.484Z,5.60
2019-01-20T00:45:45.734Z,7.40
2019-01-20T00:48:18.445Z,3.57
2019-01-20T00:50:50.904Z,6.57
2019-01-20T00:53:23.938Z,4.20
2019-01-20T00:55:56.694Z,10.73
2019-01-20T00:58:29.384Z,4.70
2019-01-20T01:01:02.505Z,2.43
2019-01-20T01:03:35.083Z,9.90
2019-01-20T01:06:08.099Z,8.03
2019-01-20T01:08:41.200Z,5.00
2019-01-20T01:11:13.530Z,12.40
2019-01-20T01:13:46.634Z,7.57
2019-01-20T01:16:19.694Z,5.13
2019-01-20T01:18:52.123Z,5.33
2019-01-20T01:21:25.084Z,5.13
2019-01-20T01:23:58.019Z,4.60
2019-01-20T01:26:30.844Z,14.37
2019-01-20T01:29:03.544Z,3.60
2019-01-20T01:31:36.404Z,7.10
2019-01-20T01:34:09.514Z,18.13
2019-01-20T01:36:42.100Z,5.57
2019-01-20T01:39:15.195Z,7.10
2019-01-20T01:41:47.859Z,4.90
2019-01-20T01:44:20.510Z,3.80
2019-01-20T01:46:55.005Z,7.43
2019-01-20T01:49:31.528Z,5.33
2019-01-20T01:52:03.823Z,3.03
2019-01-20T01:54:36.459Z,6.20
2019-01-20T01:57:09.304Z,4.13
2019-01-20T01:59:42.124Z,4.10
2019-01-20T02:02:15.091Z,3.83
2019-01-20T02:04:47.550Z,2.07
2019-01-20T02:07:20.204Z,7.67
2019-01-20T02:09:53.044Z,2.63
2019-01-20T02:12:26.100Z,2.57
2019-01-20T02:14:59.065Z,5.90
2019-01-20T02:17:32.443Z,2.27
2019-01-20T02:20:05.484Z,5.70
2019-01-20T02:22:38.444Z,9.97
2019-01-20T02:25:11.343Z,3.43
2019-01-20T02:27:44.114Z,7.70
2019-01-20T02:30:20.560Z,7.53
2019-01-20T02:32:53.124Z,3.60
2019-01-20T02:35:26.223Z,3.90
2019-01-20T02:37:58.649Z,5.63
2019-01-20T02:40:31.485Z,4.43
2019-01-20T02:43:03.880Z,5.83
2019-01-20T02:45:37.059Z,4.50
2019-01-20T02:48:09.705Z,5.97
2019-01-20T02:50:42.444Z,1.97
2019-01-20T02:53:14.939Z,3.20
2019-01-20T02:55:47.842Z,3.43
2019-01-20T02:58:20.284Z,1.30
2019-01-20T03:00:52.890Z,6.57
2019-01-20T03:03:25.825Z,2.13
2019-01-20T03:05:58.906Z,2.73
2019-01-20T03:08:31.754Z,2.83
2019-01-20T03:11:04.664Z,3.37
2019-01-20T03:13:37.860Z,1.30
2019-01-20T03:16:10.693Z,3.23
2019-01-20T03:18:43.817Z,4.20
2019-01-20T03:21:16.899Z,2.57
2019-01-20T03:23:49.683Z,16.93
2019-01-20T03:26:22.299Z,3.73
2019-01-20T03:28:54.835Z,5.83
2019-01-20T03:31:27.465Z,2.80
2019-01-20T03:33:59.765Z,2.97
2019-01-20T03:36:32.804Z,4.10
2019-01-20T03:39:06.798Z,3.80
2019-01-20T03:41:39.664Z,3.30
2019-01-20T03:44:11.944Z,2.07
2019-01-20T03:46:44.519Z,3.03
2019-01-20T03:49:17.621Z,2.87
2019-01-20T03:51:50.300Z,3.20
2019-01-20T03:54:22.899Z,5.37
2019-01-20T03:56:55.479Z,3.27
2019-01-20T03:59:27.973Z,5.27
2019-01-20T04:02:00.600Z,3.00
2019-01-20T04:04:32.924Z,5.17
2019-01-20T04:07:05.904Z,6.47
2019-01-20T04:09:38.906Z,3.37
2019-01-20T04:12:20.303Z,3.80
2019-01-20T04:14:47.263Z,3.17
2019-01-20T04:17:20.064Z,4.23
2019-01-20T04:19:52.665Z,1.97
2019-01-20T04:22:25.364Z,7.67
2019-01-20T04:24:58.164Z,16.87
2019-01-20T04:27:31.044Z,7.60
2019-01-20T04:30:03.715Z,10.70
2019-01-20T04:32:36.664Z,4.90
2019-01-20T04:35:10.324Z,4.13
2019-01-20T04:37:43.047Z,4.37
2019-01-20T04:40:18.694Z,6.27
2019-01-20T04:42:51.939Z,4.33
2019-01-20T04:45:24.927Z,11.63
2019-01-20T04:47:58.019Z,4.23
2019-01-20T04:50:30.804Z,5.37
2019-01-20T04:53:03.506Z,3.93
2019-01-20T04:55:37.180Z,4.07
2019-01-20T04:58:09.869Z,11.87
2019-01-20T05:00:42.463Z,8.33
2019-01-20T05:03:15.184Z,7.10
2019-01-20T05:05:47.833Z,10.47
2019-01-20T05:08:21.106Z,10.17
2019-01-20T05:10:53.464Z,12.27
2019-01-20T05:13:26.279Z,5.83
2019-01-20T05:15:58.801Z,9.43
2019-01-20T05:18:31.599Z,8.73
2019-01-20T05:21:04.270Z,16.53
2019-01-20T05:23:36.904Z,7.40
2019-01-20T05:26:09.903Z,6.13
2019-01-20T05:28:43.037Z,9.30
2019-01-20T05:31:15.404Z,11.00
2019-01-20T05:33:48.003Z,5.47
2019-01-20T05:36:21.023Z,9.30
2019-01-20T05:38:54.044Z,13.07
2019-01-20T05:41:26.884Z,7.03
2019-01-20T05:43:59.300Z,16.10
2019-01-20T05:46:31.983Z,6.27
2019-01-20T05:49:04.625Z,5.60
2019-01-20T05:51:37.679Z,12.77
2019-01-20T05:54:10.039Z,9.27
2019-01-20T05:56:43.413Z,7.07
2019-01-20T05:59:16.263Z,8.43
2019-01-20T06:01:49.283Z,15.87
2019-01-20T06:04:22.186Z,5.70
2019-01-20T06:06:55.204Z,10.47
2019-01-20T06:09:27.687Z,34.00
2019-01-20T06:12:00.164Z,11.03
2019-01-20T06:14:32.964Z,11.00
2019-01-20T06:17:05.564Z,8.97
2019-01-20T06:19:38.439Z,12.13
2019-01-20T06:22:11.504Z,13.90
2019-01-20T06:24:43.914Z,11.00
2019-01-20T06:27:19.704Z,14.47
2019-01-20T06:29:52.194Z,9.47
2019-01-20T06:32:24.986Z,13.10
2019-01-20T06:34:58.484Z,23.20
2019-01-20T06:37:31.859Z,17.63
2019-01-20T06:40:04.763Z,17.77
2019-01-20T06:42:37.064Z,11.50
2019-01-20T06:45:10.845Z,17.20
2019-01-20T06:47:43.324Z,16.53
2019-01-20T06:50:16.716Z,13.57
2019-01-20T06:52:49.824Z,19.57
2019-01-20T06:55:23.246Z,14.37
2019-01-20T06:57:56.627Z,15.63
2019-01-20T07:00:29.365Z,20.50
2019-01-20T07:03:02.035Z,11.00
2019-01-20T07:05:35.267Z,17.30
2019-01-20T07:08:08.245Z,17.23
2019-01-20T07:10:40.986Z,11.73
2019-01-20T07:13:14.175Z,17.13
2019-01-20T07:15:47.090Z,8.97
2019-01-20T07:18:20.165Z,15.57
2019-01-20T07:20:53.345Z,14.53
2019-01-20T07:23:26.685Z,27.63
2019-01-20T07:25:59.959Z,14.90
2019-01-20T07:28:33.245Z,18.70
2019-01-20T07:31:06.048Z,11.93
2019-01-20T07:33:38.584Z,13.83
2019-01-20T07:36:11.125Z,19.97
2019-01-20T07:38:43.844Z,23.83
2019-01-20T07:41:17.085Z,15.20
2019-01-20T07:43:49.867Z,25.97
2019-01-20T07:46:22.730Z,33.37
2019-01-20T07:48:55.365Z,10.70
2019-01-20T07:51:28.623Z,14.03
2019-01-20T07:54:01.560Z,22.23
2019-01-20T07:56:34.818Z,11.80
2019-01-20T07:59:07.453Z,10.47
2019-01-20T08:01:40.633Z,20.63
2019-01-20T08:04:13.323Z,14.37
2019-01-20T08:06:45.873Z,20.57
2019-01-20T08:09:18.844Z,6.30
2019-01-20T08:11:52.003Z,13.27
2019-01-20T08:14:24.505Z,10.47
2019-01-20T08:16:57.763Z,12.57
2019-01-20T08:19:30.263Z,15.73
2019-01-20T08:22:03.207Z,8.50
2019-01-20T08:24:35.786Z,15.20
2019-01-20T08:27:09.023Z,14.87
2019-01-20T08:29:41.884Z,18.83
2019-01-20T08:32:15.303Z,10.27
2019-01-20T08:34:48.263Z,8.93
2019-01-20T08:37:20.924Z,17.37
2019-01-20T08:39:53.894Z,8.97
2019-01-20T08:42:27.243Z,19.30
2019-01-20T08:45:00.304Z,7.63
2019-01-20T08:47:46.144Z,19.77
2019-01-20T08:50:19.829Z,8.70
2019-01-20T08:52:52.903Z,17.23
2019-01-20T08:55:25.994Z,25.87
2019-01-20T08:58:01.444Z,7.87
2019-01-20T09:00:33.934Z,11.47
2019-01-20T09:03:07.159Z,15.43
2019-01-20T09:05:40.184Z,17.47
2019-01-20T09:08:14.081Z,12.57
2019-01-20T09:10:46.523Z,14.10
2019-01-20T09:13:20.624Z,14.07
2019-01-20T09:15:53.434Z,21.70
2019-01-20T09:18:28.849Z,13.10
2019-01-20T09:21:02.054Z,17.47
2019-01-20T09:23:35.194Z,12.40
2019-01-20T09:26:08.354Z,14.17
2019-01-20T09:28:41.269Z,9.73
2019-01-20T09:31:16.703Z,16.00
2019-01-20T09:33:49.783Z,16.70
2019-01-20T09:36:22.223Z,22.10
2019-01-20T09:38:55.264Z,8.63
2019-01-20T09:41:28.143Z,17.53
2019-01-20T09:44:00.944Z,15.93
2019-01-20T09:46:34.069Z,16.50
2019-01-20T09:49:06.749Z,19.63
2019-01-20T09:51:40.713Z,17.47
2019-01-20T09:54:14.579Z,19.23
2019-01-20T09:56:47.543Z,10.37
2019-01-20T09:59:20.144Z,17.80
2019-01-20T10:01:52.859Z,23.00
2019-01-20T10:04:25.523Z,16.30
2019-01-20T10:06:58.734Z,13.53
2019-01-20T10:09:31.603Z,15.87
2019-01-20T10:12:04.474Z,14.20
2019-01-20T10:14:37.238Z,11.77
2019-01-20T10:17:10.083Z,12.00
2019-01-20T10:19:42.866Z,18.67
2019-01-20T10:22:15.863Z,13.87
2019-01-20T10:24:48.524Z,7.87
2019-01-20T10:27:21.153Z,9.97
2019-01-20T10:29:54.003Z,16.37
2019-01-20T10:32:26.999Z,16.57
2019-01-20T10:35:00.385Z,27.67
2019-01-20T10:37:33.223Z,13.53
2019-01-20T10:40:06.343Z,16.73
2019-01-20T10:42:39.283Z,22.47
2019-01-20T10:45:13.383Z,22.60
2019-01-20T10:47:51.074Z,11.20
2019-01-20T10:50:24.289Z,14.47
2019-01-20T10:52:57.323Z,25.40
2019-01-20T10:55:31.105Z,19.10
2019-01-20T10:58:04.107Z,19.13
2019-01-20T11:00:40.099Z,26.57
2019-01-20T11:03:13.325Z,17.13
2019-01-20T11:05:46.934Z,17.20
2019-01-20T11:08:19.986Z,12.30
2019-01-20T11:10:55.768Z,18.00
2019-01-20T11:13:29.433Z,26.87
2019-01-20T11:16:04.743Z,9.03
2019-01-20T11:18:37.979Z,17.60
2019-01-20T11:21:11.306Z,9.67
2019-01-20T11:23:45.202Z,17.57
2019-01-20T11:26:19.144Z,28.13
2019-01-20T11:28:52.694Z,24.13
2019-01-20T11:31:25.419Z,25.77
2019-01-20T11:33:58.874Z,18.20
2019-01-20T11:36:32.854Z,14.93
2019-01-20T11:39:10.746Z,22.13
2019-01-20T11:41:43.779Z,15.03
2019-01-20T11:44:17.170Z,17.47
2019-01-20T11:46:53.346Z,21.50
2019-01-20T11:49:25.853Z,14.37
2019-01-20T11:51:58.885Z,13.73
2019-01-20T11:54:32.033Z,18.60
2019-01-20T11:57:05.834Z,21.43
2019-01-20T11:59:38.833Z,12.27
2019-01-20T12:02:11.753Z,25.13
2019-01-20T12:04:44.353Z,6.80
2019-01-20T12:07:17.815Z,17.13
2019-01-20T12:09:50.576Z,13.80
2019-01-20T12:12:24.033Z,10.03
2019-01-20T12:14:58.809Z,19.20
2019-01-20T12:17:32.134Z,14.33
2019-01-20T12:20:06.174Z,12.17
2019-01-20T12:22:39.297Z,8.83
2019-01-20T12:25:14.954Z,9.67
2019-01-20T12:27:48.073Z,12.10
2019-01-20T12:30:23.944Z,33.30
2019-01-20T12:32:58.274Z,11.50
2019-01-20T12:35:32.913Z,15.13
2019-01-20T12:38:06.529Z,16.67
2019-01-20T12:40:48.374Z,20.37
2019-01-20T12:43:23.173Z,12.73
2019-01-20T12:45:56.185Z,8.60
2019-01-20T12:48:30.034Z,15.87
2019-01-20T12:51:02.754Z,23.23
2019-01-20T12:53:35.874Z,12.50
2019-01-20T12:56:08.624Z,25.60
2019-01-20T12:58:42.594Z,6.50
2019-01-20T13:01:15.677Z,6.50
2019-01-20T13:03:48.468Z,12.83
2019-01-20T13:06:21.289Z,19.10
2019-01-20T13:08:54.678Z,15.87
2019-01-20T13:11:29.893Z,26.70
2019-01-20T13:14:02.815Z,11.70
2019-01-20T13:16:36.624Z,20.60
2019-01-20T13:19:12.209Z,10.23
2019-01-20T13:21:47.034Z,10.10
2019-01-20T13:24:19.769Z,20.03
2019-01-20T13:26:55.354Z,32.50
2019-01-20T13:29:28.574Z,16.17
2019-01-20T13:32:01.948Z,9.50
2019-01-20T13:34:34.684Z,9.03
2019-01-20T13:37:07.674Z,10.77
2019-01-20T13:39:42.756Z,6.53
2019-01-20T13:42:16.095Z,23.17
2019-01-20T13:44:49.323Z,16.57
2019-01-20T13:47:22.223Z,22.83
2019-01-20T13:49:56.753Z,24.03
2019-01-20T13:52:29.744Z,14.70
2019-01-20T13:55:03.099Z,18.53
2019-01-20T13:57:35.831Z,13.47
2019-01-20T14:00:18.114Z,20.03
2019-01-20T14:02:51.731Z,20.70
2019-01-20T14:05:24.624Z,16.20
2019-01-20T14:07:57.655Z,20.03
2019-01-20T14:10:30.793Z,24.63
2019-01-20T14:13:03.153Z,20.50
2019-01-20T14:15:35.756Z,12.77
2019-01-20T14:18:08.655Z,15.57
2019-01-20T14:20:41.874Z,31.67
2019-01-20T14:23:14.734Z,23.43
2019-01-20T14:25:47.514Z,22.67
2019-01-20T14:28:20.536Z,22.87
2019-01-20T14:30:53.335Z,28.10
2019-01-20T14:33:26.297Z,32.40
2019-01-20T14:35:59.056Z,19.87
2019-01-20T14:38:31.575Z,19.47
2019-01-20T14:41:04.829Z,22.27
2019-01-20T14:43:37.753Z,17.27
2019-01-20T14:46:10.108Z,14.93
2019-01-20T14:48:43.120Z,17.00
2019-01-20T14:51:17.313Z,10.07
2019-01-20T14:53:49.983Z,39.37
2019-01-20T14:56:23.454Z,18.07
2019-01-20T14:58:56.454Z,28.10
2019-01-20T15:01:29.113Z,17.57
2019-01-20T15:04:02.415Z,14.97
2019-01-20T15:06:34.834Z,21.27
2019-01-20T15:09:10.014Z,32.47
2019-01-20T15:11:42.834Z,19.50
2019-01-20T15:14:15.673Z,17.43
2019-01-20T15:16:48.494Z,22.87
2019-01-20T15:19:21.871Z,28.73
2019-01-20T15:21:54.834Z,30.50
2019-01-20T15:24:31.369Z,19.00
2019-01-20T15:27:01.935Z,27.57
2019-01-20T15:29:34.646Z,27.17
2019-01-20T15:32:07.293Z,16.93
2019-01-20T15:34:40.753Z,25.37
2019-01-20T15:37:13.835Z,19.60
2019-01-20T15:39:46.734Z,36.43
2019-01-20T15:42:19.889Z,22.63
2019-01-20T15:44:52.289Z,17.50
2019-01-20T15:47:24.678Z,21.97
2019-01-20T15:49:57.474Z,31.30
2019-01-20T15:52:32.754Z,23.07
2019-01-20T15:55:05.839Z,20.10
2019-01-20T15:57:38.755Z,27.37
2019-01-20T16:00:14.543Z,22.73
2019-01-20T16:02:48.634Z,15.83
2019-01-20T16:05:21.959Z,20.70
2019-01-20T16:07:54.968Z,20.17
2019-01-20T16:10:27.394Z,38.20
2019-01-20T16:13:00.563Z,22.83
2019-01-20T16:15:38.489Z,34.23
2019-01-20T16:18:14.303Z,29.20
2019-01-20T16:20:45.889Z,24.13
2019-01-20T16:23:18.655Z,36.47
2019-01-20T16:25:51.333Z,15.60
2019-01-20T16:28:24.034Z,25.87
2019-01-20T16:30:57.388Z,38.23
2019-01-20T16:33:30.374Z,16.30
2019-01-20T16:36:03.220Z,27.87
2019-01-20T16:38:35.723Z,20.80
2019-01-20T16:41:08.263Z,25.27
2019-01-20T16:43:41.023Z,25.73
2019-01-20T16:46:13.553Z,30.17
2019-01-20T16:48:45.994Z,20.50
2019-01-20T16:51:18.554Z,16.90
2019-01-20T16:53:52.944Z,26.63
2019-01-20T16:56:25.683Z,19.43
2019-01-20T16:58:58.298Z,33.10
2019-01-20T17:01:30.824Z,28.33
2019-01-20T17:04:03.179Z,26.00
2019-01-20T17:06:35.881Z,29.47
2019-01-20T17:09:10.848Z,20.10
2019-01-20T17:11:43.648Z,21.43
2019-01-20T17:14:16.579Z,16.70
2019-01-20T17:16:49.128Z,45.63
2019-01-20T17:19:21.529Z,20.03
2019-01-20T17:21:54.634Z,26.63
2019-01-20T17:24:27.158Z,21.70
2019-01-20T17:26:59.899Z,31.63
2019-01-20T17:29:32.390Z,33.70
2019-01-20T17:32:05.424Z,26.07
2019-01-20T17:34:37.879Z,15.53
2019-01-20T17:37:10.449Z,13.07
2019-01-20T17:39:42.720Z,20.63
2019-01-20T17:42:15.194Z,34.07
2019-01-20T17:44:47.704Z,34.37
2019-01-20T17:47:20.039Z,17.13
2019-01-20T17:49:52.890Z,9.43
2019-01-20T17:52:25.194Z,29.63
2019-01-20T17:54:59.410Z,39.10
2019-01-20T17:57:35.654Z,25.87
2019-01-20T18:00:10.694Z,26.50
2019-01-20T18:02:43.283Z,43.23
2019-01-20T18:05:18.946Z,35.27
2019-01-20T18:07:51.754Z,44.33
2019-01-20T18:10:24.869Z,32.70
2019-01-20T18:12:57.552Z,20.30
2019-01-20T18:15:30.019Z,54.50
2019-01-20T18:18:02.894Z,26.43
2019-01-20T18:20:36.300Z,37.13
2019-01-20T18:23:09.574Z,20.80
2019-01-20T18:25:42.784Z,26.93
2019-01-20T18:28:15.819Z,49.90
2019-01-20T18:30:48.263Z,22.30
2019-01-20T18:33:22.168Z,25.47
2019-01-20T18:35:54.589Z,33.60
2019-01-20T18:38:27.799Z,22.33
2019-01-20T18:41:01.644Z,27.73
2019-01-20T18:43:34.069Z,35.17
2019-01-20T18:46:07.484Z,39.03
2019-01-20T18:48:40.004Z,62.13
2019-01-20T18:51:12.919Z,41.83
2019-01-20T18:53:45.369Z,41.37
2019-01-20T18:56:18.989Z,32.40
2019-01-20T18:58:51.609Z,30.30
2019-01-20T19:01:24.124Z,25.97
2019-01-20T19:03:57.023Z,35.33
2019-01-20T19:06:29.639Z,39.80
2019-01-20T19:09:02.125Z,20.20
2019-01-20T19:11:37.099Z,44.87
2019-01-20T19:14:09.944Z,56.93
2019-01-20T19:16:42.248Z,56.53
2019-01-20T19:19:14.779Z,48.23
2019-01-20T19:21:47.074Z,50.37
2019-01-20T19:24:19.772Z,28.13
2019-01-20T19:26:53.508Z,44.93
2019-01-20T19:29:25.968Z,56.93
2019-01-20T19:31:59.234Z,40.00
2019-01-20T19:34:31.539Z,55.30
2019-01-20T19:37:03.983Z,41.50
2019-01-20T19:39:36.821Z,35.33
2019-01-20T19:42:09.723Z,34.27
2019-01-20T19:44:44.725Z,38.87
2019-01-20T19:47:19.174Z,36.00
2019-01-20T19:49:51.634Z,53.00
2019-01-20T19:52:23.954Z,49.03
2019-01-20T19:54:56.479Z,36.73
2019-01-20T19:57:30.479Z,67.57
2019-01-20T20:00:02.724Z,38.77
2019-01-20T20:02:36.504Z,35.90
2019-01-20T20:05:12.928Z,51.73
2019-01-20T20:07:46.338Z,53.73
2019-01-20T20:10:21.719Z,53.93
2019-01-20T20:12:55.324Z,31.33
2019-01-20T20:15:28.888Z,30.70
2019-01-20T20:18:01.490Z,45.57
2019-01-20T20:20:35.323Z,59.93
2019-01-20T20:23:09.959Z,54.60
2019-01-20T20:25:44.264Z,28.60
2019-01-20T20:28:16.754Z,62.13
2019-01-20T20:30:49.518Z,41.47
2019-01-20T20:33:22.234Z,42.47
2019-01-20T20:35:55.234Z,43.77
2019-01-20T20:38:28.096Z,57.80
2019-01-20T20:41:00.609Z,26.13
2019-01-20T20:43:33.308Z,27.60
2019-01-20T20:46:05.679Z,49.17
2019-01-20T20:48:40.059Z,33.33
2019-01-20T20:51:12.904Z,59.60
2019-01-20T20:53:47.253Z,41.97
2019-01-20T20:56:19.459Z,40.23
2019-01-20T20:58:53.779Z,44.40
2019-01-20T21:01:26.090Z,39.17
2019-01-20T21:03:59.879Z,43.43
2019-01-20T21:06:32.135Z,48.33
2019-01-20T21:09:05.479Z,45.53
2019-01-20T21:11:42.260Z,49.93
2019-01-20T21:14:14.929Z,29.17
2019-01-20T21:16:48.004Z,55.40
2019-01-20T21:19:21.744Z,44.57
2019-01-20T21:21:55.489Z,32.93
2019-01-20T21:24:28.227Z,43.07
2019-01-20T21:27:01.639Z,28.00
2019-01-20T21:29:35.164Z,42.80
2019-01-20T21:32:08.794Z,36.07
2019-01-20T21:34:41.788Z,49.83
2019-01-20T21:37:14.370Z,41.43
2019-01-20T21:39:47.330Z,47.47
2019-01-20T21:42:20.154Z,42.13
2019-01-20T21:44:52.474Z,28.43
2019-01-20T21:47:24.773Z,33.43
2019-01-20T21:49:57.424Z,31.67
2019-01-20T21:52:29.799Z,44.13
2019-01-20T21:55:02.644Z,56.83
2019-01-20T21:57:35.159Z,35.23
2019-01-20T22:00:11.603Z,54.57
2019-01-20T22:02:44.158Z,31.77
2019-01-20T22:05:16.524Z,29.93
2019-01-20T22:07:49.409Z,53.23
2019-01-20T22:10:23.434Z,46.70
2019-01-20T22:12:56.293Z,30.83
2019-01-20T22:15:28.638Z,28.70
2019-01-20T22:18:00.886Z,47.53
2019-01-20T22:20:33.448Z,51.53
2019-01-20T22:23:05.889Z,30.03
2019-01-20T22:25:38.793Z,65.50
2019-01-20T22:28:11.424Z,61.90
2019-01-20T22:30:44.019Z,41.87
2019-01-20T22:33:16.568Z,38.00
2019-01-20T22:35:49.409Z,40.43
2019-01-20T22:38:21.579Z,58.03
2019-01-20T22:40:54.284Z,48.13
2019-01-20T22:43:26.874Z,50.30
2019-01-20T22:45:59.659Z,39.07
2019-01-20T22:48:31.863Z,55.87
2019-01-20T22:51:04.519Z,50.57
2019-01-20T22:53:37.170Z,43.13
2019-01-20T22:56:09.898Z,27.57
2019-01-20T22:58:42.738Z,76.07
2019-01-20T23:01:22.042Z,47.77
2019-01-20T23:03:54.399Z,41.77
2019-01-20T23:06:27.040Z,70.67
2019-01-20T23:09:06.351Z,39.17
2019-01-20T23:11:33.075Z,43.83
2019-01-20T23:14:07.358Z,52.20
2019-01-20T23:16:40.139Z,54.73
2019-01-20T23:19:13.173Z,63.27
2019-01-20T23:21:45.988Z,41.50
2019-01-20T23:24:18.853Z,40.93
2019-01-20T23:26:51.273Z,51.17
2019-01-20T23:29:23.679Z,27.40
2019-01-20T23:31:56.069Z,47.30
2019-01-20T23:34:28.558Z,44.47
2019-01-20T23:37:00.828Z,27.43
2019-01-20T23:39:33.018Z,24.23
2019-01-20T23:42:05.609Z,35.67
2019-01-20T23:44:38.618Z,27.87
2019-01-20T23:47:15.322Z,70.43
2019-01-20T23:49:46.998Z,41.90
2019-01-20T23:52:19.275Z,37.87
2019-01-20T23:54:52.168Z,43.30
2019-01-20T23:57:24.905Z,38.33
2019-01-20T23:59:57.108Z,58.67
